createdAt,value
2022-12-31T00:00:22.676Z,16.60
2022-12-31T00:01:56.908Z,18.67
2022-12-31T00:03:28.832Z,17.30
2022-12-31T00:05:01.056Z,18.17
2022-12-31T00:06:35.532Z,16.92
2022-12-31T00:08:07.340Z,17.17
2022-12-31T00:09:39.080Z,17.42
2022-12-31T00:11:11.337Z,19.00
2022-12-31T00:12:43.060Z,18.65
2022-12-31T00:14:14.935Z,20.15
2022-12-31T00:15:46.860Z,19.33
2022-12-31T00:17:18.606Z,19.10
2022-12-31T00:18:52.962Z,20.88
2022-12-31T00:20:24.736Z,19.23
2022-12-31T00:21:56.488Z,20.00
2022-12-31T00:23:28.186Z,21.02
2022-12-31T00:25:00.139Z,18.98
2022-12-31T00:26:34.025Z,20.98
2022-12-31T00:28:05.838Z,19.38
2022-12-31T00:29:37.631Z,19.17
2022-12-31T00:31:14.369Z,18.55
2022-12-31T00:32:46.168Z,19.45
2022-12-31T00:34:17.915Z,20.73
2022-12-31T00:35:49.618Z,18.80
2022-12-31T00:37:21.353Z,17.98
2022-12-31T00:38:54.961Z,20.48
2022-12-31T00:40:29.167Z,20.30
2022-12-31T00:42:00.943Z,19.90
2022-12-31T00:43:33.310Z,19.65
2022-12-31T00:45:05.368Z,20.10
2022-12-31T00:48:07.920Z,19.20
2022-12-31T00:49:39.660Z,20.85
2022-12-31T00:51:14.110Z,24.73
2022-12-31T00:52:45.831Z,21.05
2022-12-31T00:54:17.550Z,19.95
2022-12-31T00:55:49.352Z,19.48
2022-12-31T00:57:21.150Z,22.70
2022-12-31T00:58:53.036Z,21.88
2022-12-31T01:00:24.796Z,22.15
2022-12-31T01:01:56.676Z,20.95
2022-12-31T01:03:28.518Z,21.17
2022-12-31T01:05:00.297Z,22.80
2022-12-31T01:06:32.570Z,23.20
2022-12-31T01:08:05.431Z,19.60
2022-12-31T01:09:37.118Z,23.73
2022-12-31T01:11:24.242Z,19.65
2022-12-31T01:12:55.964Z,20.48
2022-12-31T01:14:27.676Z,21.58
2022-12-31T01:16:06.385Z,19.92
2022-12-31T01:17:38.098Z,19.45
2022-12-31T01:19:13.791Z,20.48
2022-12-31T01:20:45.508Z,21.60
2022-12-31T01:22:17.282Z,21.55
2022-12-31T01:23:49.145Z,21.60
2022-12-31T01:25:21.148Z,18.88
2022-12-31T01:26:52.940Z,20.33
2022-12-31T01:28:24.686Z,20.20
2022-12-31T01:29:56.392Z,20.55
2022-12-31T01:31:28.449Z,20.10
2022-12-31T01:33:00.243Z,21.45
2022-12-31T01:34:32.216Z,22.63
2022-12-31T01:36:19.047Z,21.55
2022-12-31T01:37:55.216Z,21.17
2022-12-31T01:39:26.989Z,20.60
2022-12-31T01:40:58.712Z,21.45
2022-12-31T01:42:30.422Z,22.13
2022-12-31T01:44:25.594Z,22.13
2022-12-31T01:45:57.588Z,20.55
2022-12-31T01:47:36.371Z,22.17
2022-12-31T01:49:19.837Z,21.80
2022-12-31T01:50:54.258Z,20.45
2022-12-31T01:52:30.913Z,21.00
2022-12-31T01:54:06.051Z,20.67
2022-12-31T01:55:57.852Z,20.30
2022-12-31T01:57:30.153Z,20.40
2022-12-31T01:59:06.958Z,21.17
2022-12-31T02:00:38.840Z,20.95
2022-12-31T02:02:12.205Z,22.27
2022-12-31T02:03:44.034Z,20.65
2022-12-31T02:05:31.850Z,22.92
2022-12-31T02:07:07.092Z,23.35
2022-12-31T02:08:42.098Z,21.52
2022-12-31T02:10:14.283Z,20.52
2022-12-31T02:11:46.036Z,21.17
2022-12-31T02:13:18.153Z,18.38
2022-12-31T02:14:53.044Z,20.67
2022-12-31T02:16:51.647Z,19.50
2022-12-31T02:18:43.278Z,18.42
2022-12-31T02:20:48.864Z,18.70
2022-12-31T02:22:39.303Z,17.98
2022-12-31T02:24:29.932Z,16.53
2022-12-31T02:26:16.688Z,16.10
2022-12-31T02:27:58.804Z,17.00
2022-12-31T02:29:51.497Z,19.27
2022-12-31T02:31:31.841Z,16.75
2022-12-31T02:33:29.803Z,17.60
2022-12-31T02:35:09.220Z,17.65
2022-12-31T02:36:44.449Z,17.63
2022-12-31T02:38:27.523Z,20.20
2022-12-31T02:40:00.460Z,20.77
2022-12-31T02:41:50.156Z,21.42
2022-12-31T02:43:21.882Z,20.10
2022-12-31T02:44:53.631Z,20.25
2022-12-31T02:46:36.954Z,20.80
2022-12-31T02:48:33.267Z,19.15
2022-12-31T02:50:32.069Z,17.42
2022-12-31T02:52:11.228Z,17.63
2022-12-31T02:54:02.334Z,18.23
2022-12-31T02:55:52.695Z,17.85
2022-12-31T02:57:42.813Z,18.33
2022-12-31T02:59:40.963Z,18.55
2022-12-31T03:01:36.883Z,17.90
2022-12-31T03:03:10.422Z,17.55
2022-12-31T03:05:02.517Z,18.60
2022-12-31T03:06:35.000Z,18.13
2022-12-31T03:08:06.813Z,18.88
2022-12-31T03:09:38.646Z,19.98
2022-12-31T03:11:30.416Z,19.65
2022-12-31T03:13:02.610Z,17.63
2022-12-31T03:14:34.336Z,20.15
2022-12-31T03:16:06.270Z,22.25
2022-12-31T03:17:38.085Z,21.38
2022-12-31T03:19:28.306Z,22.70
2022-12-31T03:21:18.933Z,21.40
2022-12-31T03:22:50.678Z,19.33
2022-12-31T03:24:42.530Z,23.85
2022-12-31T03:26:14.265Z,22.42
2022-12-31T03:27:47.208Z,24.98
2022-12-31T03:29:18.953Z,24.90
2022-12-31T03:30:54.368Z,22.77
2022-12-31T03:32:26.119Z,25.75
2022-12-31T03:33:57.848Z,26.58
2022-12-31T03:35:31.496Z,26.58
2022-12-31T03:37:03.256Z,22.40
2022-12-31T03:38:35.156Z,25.73
2022-12-31T03:40:10.413Z,25.73
2022-12-31T03:41:42.705Z,25.73
2022-12-31T03:43:15.054Z,27.25
2022-12-31T03:44:46.807Z,29.17
2022-12-31T03:46:18.567Z,28.65
2022-12-31T03:47:50.410Z,28.70
2022-12-31T03:49:22.182Z,29.63
2022-12-31T03:50:55.320Z,28.40
2022-12-31T03:52:27.105Z,28.65
2022-12-31T03:53:58.855Z,29.77
2022-12-31T03:55:30.620Z,28.33
2022-12-31T03:57:02.626Z,29.63
2022-12-31T03:58:34.346Z,30.63
2022-12-31T04:00:08.952Z,31.33
2022-12-31T04:01:40.764Z,29.45
2022-12-31T04:03:12.659Z,32.30
2022-12-31T04:04:44.397Z,30.58
2022-12-31T04:06:16.146Z,32.70
2022-12-31T04:07:48.453Z,34.28
2022-12-31T04:09:20.233Z,31.95
2022-12-31T04:10:52.060Z,30.65
2022-12-31T04:12:23.803Z,32.10
2022-12-31T04:13:55.619Z,29.95
2022-12-31T04:15:27.345Z,30.30
2022-12-31T04:16:59.044Z,33.83
2022-12-31T04:18:31.025Z,32.13
2022-12-31T04:20:04.301Z,31.88
2022-12-31T04:21:36.185Z,33.72
2022-12-31T04:23:07.907Z,32.28
2022-12-31T04:24:39.630Z,31.70
2022-12-31T04:26:11.375Z,33.10
2022-12-31T04:27:46.179Z,33.97
2022-12-31T04:29:17.960Z,32.78
2022-12-31T04:30:50.820Z,32.10
2022-12-31T04:32:22.566Z,35.35
2022-12-31T04:33:54.343Z,35.17
2022-12-31T04:35:26.045Z,34.20
2022-12-31T04:36:57.799Z,33.42
2022-12-31T04:38:29.814Z,33.63
2022-12-31T04:40:05.821Z,32.05
2022-12-31T04:41:38.522Z,34.85
2022-12-31T04:43:10.222Z,37.25
2022-12-31T04:44:41.980Z,33.83
2022-12-31T04:46:14.439Z,34.65
2022-12-31T04:47:46.187Z,33.22
2022-12-31T04:49:18.096Z,33.15
2022-12-31T04:50:49.809Z,35.65
2022-12-31T04:52:21.887Z,32.78
2022-12-31T04:53:54.054Z,34.10
2022-12-31T04:55:25.758Z,34.13
2022-12-31T04:56:57.491Z,33.50
2022-12-31T04:58:29.382Z,34.25
2022-12-31T05:00:01.351Z,32.72
2022-12-31T05:01:33.791Z,36.15
2022-12-31T05:03:05.587Z,34.83
2022-12-31T05:04:37.305Z,33.17
2022-12-31T05:06:17.708Z,33.35
2022-12-31T05:07:50.091Z,35.45
2022-12-31T05:09:24.222Z,35.70
2022-12-31T05:10:56.451Z,34.72
2022-12-31T05:12:28.244Z,34.80
2022-12-31T05:14:00.112Z,33.38
2022-12-31T05:15:31.832Z,34.25
2022-12-31T05:17:03.602Z,36.03
2022-12-31T05:18:35.848Z,35.13
2022-12-31T05:20:08.047Z,35.50
2022-12-31T05:21:39.894Z,33.97
2022-12-31T05:23:12.280Z,34.53
2022-12-31T05:24:43.983Z,33.92
2022-12-31T05:26:16.006Z,36.88
2022-12-31T05:27:47.799Z,33.90
2022-12-31T05:29:19.505Z,34.95
2022-12-31T05:30:51.449Z,35.80
2022-12-31T05:32:23.267Z,33.38
2022-12-31T05:33:55.037Z,31.63
2022-12-31T05:35:26.809Z,38.28
2022-12-31T05:36:58.505Z,40.67
2022-12-31T05:38:30.222Z,33.47
2022-12-31T05:40:02.017Z,32.95
2022-12-31T05:41:34.165Z,35.53
2022-12-31T05:43:05.921Z,35.97
2022-12-31T05:44:37.643Z,33.95
2022-12-31T05:46:09.411Z,33.15
2022-12-31T05:47:42.254Z,32.70
2022-12-31T05:49:14.024Z,35.72
2022-12-31T05:50:46.034Z,34.03
2022-12-31T05:52:17.813Z,34.25
2022-12-31T05:53:49.528Z,31.52
2022-12-31T05:55:21.369Z,34.80
2022-12-31T05:56:53.288Z,34.40
2022-12-31T05:58:25.024Z,34.83
2022-12-31T05:59:56.888Z,34.83
2022-12-31T06:01:28.641Z,32.30
2022-12-31T06:03:00.540Z,35.85
2022-12-31T06:04:33.342Z,32.70
2022-12-31T06:06:05.398Z,36.13
2022-12-31T06:07:37.156Z,35.70
2022-12-31T06:09:09.060Z,34.22
2022-12-31T06:10:40.899Z,33.92
2022-12-31T06:12:12.677Z,35.67
2022-12-31T06:13:44.470Z,34.88
2022-12-31T06:15:16.850Z,36.30
2022-12-31T06:16:48.576Z,33.92
2022-12-31T06:18:21.668Z,33.17
2022-12-31T06:19:53.367Z,37.55
2022-12-31T06:21:25.147Z,39.95
2022-12-31T06:22:56.834Z,34.72
2022-12-31T06:24:28.584Z,38.17
2022-12-31T06:26:06.707Z,36.13
2022-12-31T06:27:38.421Z,32.65
2022-12-31T06:29:10.535Z,33.65
2022-12-31T06:30:42.261Z,36.03
2022-12-31T06:32:14.112Z,33.42
2022-12-31T06:33:47.052Z,34.33
2022-12-31T06:35:18.787Z,32.65
2022-12-31T06:36:50.542Z,34.08
2022-12-31T06:38:22.247Z,35.83
2022-12-31T06:39:53.966Z,36.08
2022-12-31T06:41:25.727Z,35.60
2022-12-31T06:43:00.080Z,36.47
2022-12-31T06:44:32.337Z,34.47
2022-12-31T06:46:05.519Z,33.53
2022-12-31T06:47:37.353Z,34.60
2022-12-31T06:49:09.103Z,34.03
2022-12-31T06:50:41.168Z,34.03
2022-12-31T06:52:13.023Z,34.80
2022-12-31T06:53:45.903Z,36.15
2022-12-31T06:55:17.914Z,33.40
2022-12-31T06:56:49.938Z,33.47
2022-12-31T06:58:21.944Z,37.03
2022-12-31T06:59:53.952Z,37.95
2022-12-31T07:01:37.974Z,33.03
2022-12-31T07:03:28.430Z,34.10
2022-12-31T07:05:12.956Z,34.08
2022-12-31T07:06:57.007Z,36.33
2022-12-31T07:09:07.681Z,36.83
2022-12-31T07:11:04.763Z,34.80
2022-12-31T07:12:48.511Z,37.00
2022-12-31T07:14:37.633Z,31.63
2022-12-31T07:16:25.539Z,37.70
2022-12-31T07:18:10.322Z,39.35
2022-12-31T07:19:57.688Z,39.25
2022-12-31T07:21:37.976Z,36.95
2022-12-31T07:23:09.931Z,36.85
2022-12-31T07:24:45.671Z,40.53
2022-12-31T07:27:01.195Z,41.35
2022-12-31T07:28:48.048Z,40.53
2022-12-31T07:30:29.791Z,41.17
2022-12-31T07:32:10.771Z,39.88
2022-12-31T07:34:15.643Z,42.05
2022-12-31T07:36:00.351Z,39.25
2022-12-31T07:37:56.444Z,40.35
2022-12-31T07:40:01.774Z,39.95
2022-12-31T07:41:52.783Z,41.63
2022-12-31T07:43:31.258Z,33.55
2022-12-31T07:45:20.670Z,40.25
2022-12-31T07:47:00.840Z,37.78
2022-12-31T07:48:32.834Z,43.13
2022-12-31T07:50:05.273Z,43.88
2022-12-31T07:51:37.340Z,42.03
2022-12-31T07:53:09.271Z,46.75
2022-12-31T07:54:41.041Z,44.80
2022-12-31T07:56:13.205Z,40.95
2022-12-31T07:58:09.144Z,45.13
2022-12-31T08:00:07.098Z,47.78
2022-12-31T08:01:53.959Z,47.60
2022-12-31T08:03:47.904Z,45.05
2022-12-31T08:05:36.897Z,39.45
2022-12-31T08:07:22.676Z,52.25
2022-12-31T08:09:03.180Z,55.30
2022-12-31T08:11:10.654Z,51.72
2022-12-31T08:12:43.050Z,47.42
2022-12-31T08:14:15.904Z,54.78
2022-12-31T08:15:48.197Z,57.08
2022-12-31T08:17:20.719Z,57.53
2022-12-31T08:18:52.763Z,64.07
2022-12-31T08:20:26.013Z,64.57
2022-12-31T08:22:13.553Z,60.63
2022-12-31T08:24:11.756Z,58.97
2022-12-31T08:25:52.492Z,64.18
2022-12-31T08:27:40.583Z,62.90
2022-12-31T08:29:27.275Z,62.08
2022-12-31T08:31:05.719Z,56.25
2022-12-31T08:32:54.366Z,61.40
2022-12-31T08:34:31.783Z,54.38
2022-12-31T08:36:29.379Z,67.95
2022-12-31T08:38:31.997Z,62.72
2022-12-31T08:40:30.902Z,57.53
2022-12-31T08:42:09.880Z,42.00
2022-12-31T08:44:00.326Z,65.38
2022-12-31T08:45:38.058Z,55.80
2022-12-31T08:47:38.470Z,58.47
2022-12-31T08:49:11.051Z,56.60
2022-12-31T08:50:42.998Z,65.03
2022-12-31T08:52:20.106Z,58.15
2022-12-31T08:53:53.223Z,44.42
2022-12-31T08:55:25.156Z,67.45
2022-12-31T08:57:23.027Z,58.95
2022-12-31T08:59:17.593Z,50.75
2022-12-31T09:00:53.057Z,65.82
2022-12-31T09:03:02.277Z,65.75
2022-12-31T09:05:09.554Z,56.50
2022-12-31T09:06:51.127Z,48.47
2022-12-31T09:08:47.587Z,50.17
2022-12-31T09:10:36.401Z,45.58
2022-12-31T09:12:21.726Z,43.05
2022-12-31T09:14:11.973Z,63.15
2022-12-31T09:16:19.208Z,56.08
2022-12-31T09:17:52.358Z,44.28
2022-12-31T09:19:24.100Z,53.42
2022-12-31T09:20:56.037Z,64.15
2022-12-31T09:22:28.161Z,66.25
2022-12-31T09:24:05.906Z,67.45
2022-12-31T09:25:56.001Z,36.00
2022-12-31T09:27:38.099Z,60.10
2022-12-31T09:29:23.109Z,44.13
2022-12-31T09:31:11.534Z,45.10
2022-12-31T09:33:01.767Z,56.58
2022-12-31T09:34:47.002Z,56.92
2022-12-31T09:36:37.004Z,67.47
2022-12-31T09:38:35.804Z,63.38
2022-12-31T09:40:29.427Z,60.33
2022-12-31T09:42:49.425Z,37.83
2022-12-31T09:44:52.015Z,36.42
2022-12-31T09:46:59.341Z,38.03
2022-12-31T09:48:50.693Z,42.92
2022-12-31T09:50:48.787Z,36.03
2022-12-31T09:52:38.951Z,45.72
2022-12-31T09:54:22.668Z,46.00
2022-12-31T09:56:10.150Z,55.25
2022-12-31T09:58:00.661Z,43.70
2022-12-31T09:59:54.359Z,39.37
2022-12-31T10:01:38.836Z,44.70
2022-12-31T10:03:32.246Z,49.67
2022-12-31T10:05:20.869Z,35.53
2022-12-31T10:07:08.259Z,30.17
2022-12-31T10:09:16.817Z,40.55
2022-12-31T10:11:18.527Z,42.20
2022-12-31T10:15:12.893Z,39.90
2022-12-31T10:17:30.840Z,39.30
2022-12-31T10:19:33.755Z,40.05
2022-12-31T10:21:16.861Z,51.25
2022-12-31T10:23:19.385Z,52.33
2022-12-31T10:25:06.056Z,45.10
2022-12-31T10:27:01.299Z,42.85
2022-12-31T10:28:59.307Z,40.30
2022-12-31T10:30:34.811Z,48.33
2022-12-31T10:32:31.809Z,43.90
2022-12-31T10:34:52.458Z,47.15
2022-12-31T10:36:38.732Z,49.17
2022-12-31T10:38:13.510Z,41.78
2022-12-31T10:40:06.943Z,47.47
2022-12-31T10:41:51.548Z,38.75
2022-12-31T10:43:55.630Z,51.83
2022-12-31T10:45:38.497Z,39.25
2022-12-31T10:47:42.109Z,41.33
2022-12-31T10:49:32.438Z,31.52
2022-12-31T10:51:41.997Z,49.35
2022-12-31T10:53:44.212Z,37.33
2022-12-31T10:55:41.784Z,36.20
2022-12-31T10:57:36.857Z,46.25
2022-12-31T10:59:40.128Z,38.53
2022-12-31T11:01:26.865Z,33.90
2022-12-31T11:03:29.491Z,38.90
2022-12-31T11:05:27.315Z,41.00
2022-12-31T11:07:23.439Z,36.00
2022-12-31T11:09:13.383Z,41.72
2022-12-31T11:11:07.344Z,41.92
2022-12-31T11:13:24.192Z,38.03
2022-12-31T11:15:11.112Z,35.75
2022-12-31T11:17:15.823Z,43.72
2022-12-31T11:19:02.274Z,37.55
2022-12-31T11:20:51.960Z,35.67
2022-12-31T11:22:42.002Z,33.20
2022-12-31T11:25:01.113Z,30.77
2022-12-31T11:26:57.439Z,37.47
2022-12-31T11:28:43.573Z,35.88
2022-12-31T11:30:57.389Z,37.50
2022-12-31T11:32:53.274Z,33.45
2022-12-31T11:35:13.813Z,40.42
2022-12-31T11:37:10.747Z,43.95
2022-12-31T11:38:51.869Z,37.25
2022-12-31T11:40:57.380Z,40.75
2022-12-31T11:42:55.407Z,36.58
2022-12-31T11:44:40.497Z,41.28
2022-12-31T11:46:42.748Z,37.25
2022-12-31T11:48:30.462Z,35.42
2022-12-31T11:50:18.207Z,37.95
2022-12-31T11:52:23.564Z,35.72
2022-12-31T11:54:33.491Z,33.17
2022-12-31T11:56:17.412Z,35.25
2022-12-31T11:57:51.015Z,36.42
2022-12-31T11:59:22.881Z,38.13
2022-12-31T12:00:59.466Z,39.80
2022-12-31T12:02:37.707Z,38.10
2022-12-31T12:04:10.917Z,38.42
2022-12-31T12:05:42.720Z,44.30
2022-12-31T12:07:16.269Z,37.80
2022-12-31T12:08:59.337Z,32.72
2022-12-31T12:11:08.066Z,31.00
2022-12-31T12:12:40.980Z,29.00
2022-12-31T12:14:20.985Z,36.42
2022-12-31T12:15:55.792Z,31.88
2022-12-31T12:17:32.593Z,41.35
2022-12-31T12:19:07.458Z,33.22
2022-12-31T12:20:40.810Z,29.67
2022-12-31T12:22:19.882Z,30.98
2022-12-31T12:24:00.985Z,29.00
2022-12-31T12:25:41.496Z,31.38
2022-12-31T12:27:22.450Z,30.40
2022-12-31T12:28:54.166Z,28.02
2022-12-31T12:30:28.331Z,31.40
2022-12-31T12:32:16.675Z,28.88
2022-12-31T12:33:50.508Z,32.88
2022-12-31T12:35:30.752Z,27.63
2022-12-31T12:37:02.915Z,25.52
2022-12-31T12:38:34.886Z,33.05
2022-12-31T12:40:19.119Z,29.05
2022-12-31T12:42:08.302Z,29.50
2022-12-31T12:43:40.110Z,25.17
2022-12-31T12:45:25.926Z,27.70
2022-12-31T12:47:18.466Z,31.63
2022-12-31T12:48:56.099Z,20.17
2022-12-31T12:50:45.011Z,24.40
2022-12-31T12:52:25.840Z,27.05
2022-12-31T12:54:07.627Z,28.05
2022-12-31T12:55:57.843Z,29.05
2022-12-31T12:57:39.668Z,26.40
2022-12-31T12:59:43.472Z,29.05
2022-12-31T13:01:27.250Z,27.77
2022-12-31T13:03:01.868Z,28.42
2022-12-31T13:04:57.897Z,27.63
2022-12-31T13:06:33.688Z,22.45
2022-12-31T13:08:26.003Z,26.90
2022-12-31T13:10:33.344Z,26.63
2022-12-31T13:12:19.503Z,29.10
2022-12-31T13:14:17.041Z,25.98
2022-12-31T13:16:22.574Z,26.10
2022-12-31T13:18:08.060Z,22.40
2022-12-31T13:20:11.873Z,28.75
2022-12-31T13:22:04.709Z,24.10
2022-12-31T13:23:44.374Z,24.90
2022-12-31T13:25:34.012Z,20.13
2022-12-31T13:27:16.407Z,25.23
2022-12-31T13:28:54.524Z,22.77
2022-12-31T13:30:33.682Z,24.58
2022-12-31T13:32:11.039Z,22.67
2022-12-31T13:33:53.618Z,24.85
2022-12-31T13:35:42.700Z,22.17
2022-12-31T13:37:39.688Z,23.00
2022-12-31T13:39:19.443Z,21.95
2022-12-31T13:41:06.043Z,23.77
2022-12-31T13:42:45.965Z,23.00
2022-12-31T13:44:34.283Z,25.92
2022-12-31T13:46:13.933Z,20.63
2022-12-31T13:47:52.455Z,23.13
2022-12-31T13:49:33.252Z,26.30
2022-12-31T13:51:42.666Z,25.70
2022-12-31T13:53:20.284Z,22.27
2022-12-31T13:54:51.924Z,19.33
2022-12-31T13:56:27.415Z,23.35
2022-12-31T13:58:05.225Z,22.50
2022-12-31T13:59:41.077Z,20.58
2022-12-31T14:01:34.697Z,25.67
2022-12-31T14:03:15.641Z,20.42
2022-12-31T14:04:53.188Z,20.30
2022-12-31T14:06:50.389Z,21.58
2022-12-31T14:08:22.785Z,21.58
2022-12-31T14:09:54.642Z,19.73
2022-12-31T14:11:50.334Z,20.25
2022-12-31T14:13:55.104Z,23.80
2022-12-31T14:15:42.476Z,19.98
2022-12-31T14:17:32.252Z,20.20
2022-12-31T14:19:19.755Z,20.35
2022-12-31T14:20:58.537Z,19.05
2022-12-31T14:22:39.957Z,20.20
2022-12-31T14:24:34.384Z,22.23
2022-12-31T14:26:15.135Z,22.50
2022-12-31T14:27:48.289Z,22.85
2022-12-31T14:29:38.261Z,18.85
2022-12-31T14:31:21.606Z,21.42
2022-12-31T14:33:05.307Z,21.02
2022-12-31T14:35:24.789Z,21.73
2022-12-31T14:37:09.211Z,20.15
2022-12-31T14:39:18.420Z,20.75
2022-12-31T14:41:48.551Z,19.38
2022-12-31T14:43:57.898Z,19.30
2022-12-31T14:45:47.190Z,18.42
2022-12-31T14:47:31.547Z,17.65
2022-12-31T14:49:30.142Z,21.63
2022-12-31T14:51:03.371Z,21.30
2022-12-31T14:52:46.939Z,19.02
2022-12-31T14:54:29.482Z,22.10
2022-12-31T14:56:06.988Z,21.50
2022-12-31T14:58:17.282Z,19.08
2022-12-31T14:59:37.260Z,19.98
2022-12-31T15:01:14.955Z,20.60
2022-12-31T15:03:15.805Z,20.77
2022-12-31T15:04:47.616Z,17.35
2022-12-31T15:06:43.137Z,23.77
2022-12-31T15:08:33.349Z,18.55
2022-12-31T15:10:18.720Z,20.83
2022-12-31T15:12:08.971Z,22.75
2022-12-31T15:14:20.425Z,20.60
2022-12-31T15:15:55.010Z,22.30
2022-12-31T15:17:48.281Z,20.60
2022-12-31T15:19:19.941Z,22.13
2022-12-31T15:21:28.777Z,21.17
2022-12-31T15:23:00.630Z,22.20
2022-12-31T15:24:33.159Z,23.02
2022-12-31T15:26:06.123Z,23.65
2022-12-31T15:27:42.354Z,26.33
2022-12-31T15:29:27.343Z,26.52
2022-12-31T15:31:20.558Z,24.25
2022-12-31T15:34:35.209Z,16.80
2022-12-31T15:36:15.008Z,20.77
2022-12-31T15:37:59.456Z,26.58
2022-12-31T15:39:31.103Z,29.48
2022-12-31T15:41:14.062Z,29.55
2022-12-31T15:42:55.577Z,24.13
2022-12-31T15:44:41.918Z,25.90
2022-12-31T15:46:20.402Z,22.52
2022-12-31T15:47:58.708Z,25.38
2022-12-31T15:49:37.039Z,31.15
2022-12-31T15:51:17.711Z,25.77
2022-12-31T15:52:53.872Z,23.60
2022-12-31T15:54:36.590Z,30.73
2022-12-31T15:56:18.880Z,22.08
2022-12-31T15:57:50.954Z,31.35
2022-12-31T15:59:24.025Z,28.85
2022-12-31T16:01:21.880Z,26.77
2022-12-31T16:02:55.803Z,25.23
2022-12-31T16:04:39.477Z,22.23
2022-12-31T16:06:13.895Z,31.23
2022-12-31T16:07:45.640Z,28.80
2022-12-31T16:09:26.832Z,29.98
2022-12-31T16:10:59.331Z,25.25
2022-12-31T16:12:40.796Z,27.45
2022-12-31T16:14:23.914Z,25.63
2022-12-31T16:16:20.043Z,23.92
2022-12-31T16:18:18.966Z,24.48
2022-12-31T16:19:55.594Z,27.02
2022-12-31T16:21:35.849Z,30.70
2022-12-31T16:23:25.606Z,28.60
2022-12-31T16:25:29.642Z,30.52
2022-12-31T16:26:54.911Z,26.45
2022-12-31T16:28:30.622Z,27.50
2022-12-31T16:30:07.243Z,28.42
2022-12-31T16:31:40.711Z,30.05
2022-12-31T16:33:15.080Z,29.83
2022-12-31T16:34:46.848Z,27.15
2022-12-31T16:36:23.386Z,30.55
2022-12-31T16:38:08.248Z,29.35
2022-12-31T16:39:55.846Z,32.45
2022-12-31T16:41:42.206Z,25.23
2022-12-31T16:43:35.666Z,25.50
2022-12-31T16:45:20.154Z,25.45
2022-12-31T16:46:51.964Z,27.95
2022-12-31T16:48:23.880Z,32.92
2022-12-31T16:50:04.200Z,31.00
2022-12-31T16:51:37.931Z,32.13
2022-12-31T16:53:14.589Z,36.05
2022-12-31T16:54:47.762Z,33.42
2022-12-31T16:56:24.802Z,30.40
2022-12-31T16:58:22.137Z,33.03
2022-12-31T17:00:04.530Z,28.77
2022-12-31T17:01:37.608Z,32.42
2022-12-31T17:03:19.465Z,36.70
2022-12-31T17:04:56.021Z,32.92
2022-12-31T17:06:32.208Z,35.53
2022-12-31T17:08:23.421Z,32.55
2022-12-31T17:10:07.168Z,31.27
2022-12-31T17:11:57.729Z,34.30
2022-12-31T17:13:33.088Z,33.70
2022-12-31T17:15:06.160Z,28.73
2022-12-31T17:17:04.049Z,34.50
2022-12-31T17:18:38.611Z,27.17
2022-12-31T17:20:22.007Z,35.78
2022-12-31T17:21:53.847Z,31.50
2022-12-31T17:23:29.232Z,38.28
2022-12-31T17:25:19.195Z,35.15
2022-12-31T17:26:52.336Z,25.20
2022-12-31T17:28:25.409Z,32.28
2022-12-31T17:30:22.524Z,36.53
2022-12-31T17:32:31.303Z,28.45
2022-12-31T17:34:15.034Z,32.08
2022-12-31T17:35:47.476Z,28.23
2022-12-31T17:37:30.566Z,30.73
2022-12-31T17:39:23.458Z,28.58
2022-12-31T17:41:04.309Z,29.02
2022-12-31T17:42:38.101Z,33.33
2022-12-31T17:44:17.236Z,30.23
2022-12-31T17:45:51.775Z,33.33
2022-12-31T17:47:23.682Z,34.78
2022-12-31T17:49:00.267Z,35.50
2022-12-31T17:50:32.092Z,25.08
2022-12-31T17:52:03.940Z,28.13
2022-12-31T17:53:35.972Z,30.35
2022-12-31T17:55:07.790Z,23.33
2022-12-31T17:56:39.555Z,24.85
2022-12-31T17:58:29.152Z,26.50
2022-12-31T18:00:04.913Z,24.63
2022-12-31T18:01:45.194Z,24.55
2022-12-31T18:03:17.110Z,22.33
2022-12-31T18:04:48.967Z,27.88
2022-12-31T18:06:20.728Z,22.15
2022-12-31T18:07:53.011Z,22.23
2022-12-31T18:09:24.745Z,23.90
2022-12-31T18:10:56.777Z,23.80
2022-12-31T18:12:28.539Z,27.05
2022-12-31T18:14:00.253Z,24.75
2022-12-31T18:15:32.060Z,23.27
2022-12-31T18:17:03.800Z,24.60
2022-12-31T18:18:39.941Z,24.83
2022-12-31T18:20:12.450Z,23.40
2022-12-31T18:21:44.947Z,22.73
2022-12-31T18:23:20.376Z,23.38
2022-12-31T18:24:56.343Z,22.30
2022-12-31T18:26:28.620Z,24.42
2022-12-31T18:28:00.439Z,25.77
2022-12-31T18:29:32.214Z,25.42
2022-12-31T18:31:03.988Z,29.45
2022-12-31T18:32:37.238Z,27.15
2022-12-31T18:34:12.835Z,27.63
2022-12-31T18:37:36.488Z,24.48
2022-12-31T18:39:08.503Z,25.15
2022-12-31T18:40:44.194Z,27.17
2022-12-31T18:42:18.258Z,29.25
2022-12-31T18:43:50.785Z,30.23
2022-12-31T18:45:22.666Z,26.33
2022-12-31T18:46:54.475Z,30.50
2022-12-31T18:48:26.900Z,32.33
2022-12-31T18:49:58.597Z,27.63
2022-12-31T18:51:32.349Z,28.25
2022-12-31T18:53:04.577Z,24.35
2022-12-31T18:54:36.586Z,26.08
2022-12-31T18:56:13.987Z,24.10
2022-12-31T18:57:45.734Z,27.45
2022-12-31T18:59:17.454Z,33.33
2022-12-31T19:00:50.387Z,33.70
2022-12-31T19:02:22.388Z,29.92
2022-12-31T19:03:56.544Z,28.30
2022-12-31T19:05:31.082Z,26.55
2022-12-31T19:07:02.839Z,30.83
2022-12-31T19:08:34.570Z,28.30
2022-12-31T19:10:06.522Z,29.60
2022-12-31T19:11:39.671Z,29.55
2022-12-31T19:13:13.035Z,29.95
2022-12-31T19:14:45.637Z,30.33
2022-12-31T19:16:18.069Z,30.23
2022-12-31T19:17:49.894Z,30.73
2022-12-31T19:19:22.116Z,23.80
2022-12-31T19:20:53.837Z,30.77
2022-12-31T19:22:25.575Z,28.60
2022-12-31T19:23:57.303Z,31.23
2022-12-31T19:25:33.999Z,21.75
2022-12-31T19:27:05.757Z,26.83
2022-12-31T19:28:37.505Z,27.15
2022-12-31T19:30:19.630Z,33.25
2022-12-31T19:31:51.442Z,27.75
2022-12-31T19:33:23.343Z,27.52
2022-12-31T19:34:55.042Z,33.45
2022-12-31T19:36:26.805Z,27.17
2022-12-31T19:37:58.553Z,29.95
2022-12-31T19:39:32.623Z,36.63
2022-12-31T19:41:04.423Z,32.28
2022-12-31T19:42:36.424Z,33.10
2022-12-31T19:44:15.554Z,33.65
2022-12-31T19:45:48.810Z,36.50
2022-12-31T19:47:20.689Z,31.45
2022-12-31T19:48:53.257Z,31.08
2022-12-31T19:50:27.671Z,29.88
2022-12-31T19:51:59.396Z,29.60
2022-12-31T19:53:31.524Z,32.63
2022-12-31T19:55:03.778Z,36.50
2022-12-31T19:56:35.794Z,37.45
2022-12-31T19:58:08.046Z,39.20
2022-12-31T19:59:39.760Z,33.13
2022-12-31T20:01:23.986Z,33.28
2022-12-31T20:02:55.880Z,32.20
2022-12-31T20:04:27.692Z,29.42
2022-12-31T20:06:08.476Z,28.27
2022-12-31T20:07:40.384Z,23.60
2022-12-31T20:09:12.138Z,25.02
2022-12-31T20:10:44.299Z,28.88
2022-12-31T20:12:16.628Z,30.33
2022-12-31T20:13:49.917Z,26.95
2022-12-31T20:15:21.621Z,28.30
2022-12-31T20:16:53.501Z,26.75
2022-12-31T20:18:25.297Z,25.88
2022-12-31T20:19:57.104Z,30.27
2022-12-31T20:21:29.519Z,30.08
2022-12-31T20:23:01.841Z,24.92
2022-12-31T20:24:33.607Z,24.83
2022-12-31T20:26:05.639Z,22.42
2022-12-31T20:27:37.355Z,19.67
2022-12-31T20:29:09.079Z,23.27
2022-12-31T20:30:40.775Z,16.65
2022-12-31T20:32:12.558Z,18.95
2022-12-31T20:33:44.886Z,21.40
2022-12-31T20:35:16.608Z,21.63
2022-12-31T20:36:48.368Z,22.15
2022-12-31T20:38:20.207Z,20.80
2022-12-31T20:39:51.972Z,18.02
2022-12-31T20:41:24.953Z,18.85
2022-12-31T20:42:56.672Z,19.88
2022-12-31T20:44:28.449Z,19.00
2022-12-31T20:46:09.348Z,20.73
2022-12-31T20:47:44.292Z,17.40
2022-12-31T20:49:16.065Z,20.08
2022-12-31T20:50:57.352Z,16.63
2022-12-31T20:54:04.452Z,18.65
2022-12-31T20:55:37.862Z,17.30
2022-12-31T20:57:09.640Z,18.20
2022-12-31T20:58:41.591Z,16.33
2022-12-31T21:00:14.912Z,18.90
2022-12-31T21:02:19.863Z,16.13
2022-12-31T21:05:32.600Z,13.65
2022-12-31T21:07:04.481Z,17.48
2022-12-31T21:08:36.693Z,14.50
2022-12-31T21:10:08.711Z,20.13
2022-12-31T21:11:58.758Z,20.20
2022-12-31T21:13:31.209Z,15.82
2022-12-31T21:15:02.913Z,18.48
2022-12-31T21:16:35.206Z,18.60
2022-12-31T21:18:07.190Z,19.48
2022-12-31T21:19:38.928Z,18.08
2022-12-31T21:21:11.642Z,20.10
2022-12-31T21:22:43.341Z,22.85
2022-12-31T21:24:20.219Z,17.05
2022-12-31T21:25:55.194Z,16.20
2022-12-31T21:27:27.686Z,16.45
2022-12-31T21:28:59.410Z,17.75
2022-12-31T21:30:31.122Z,17.80
2022-12-31T21:32:03.096Z,14.88
2022-12-31T21:33:35.161Z,11.63
2022-12-31T21:35:40.715Z,16.48
2022-12-31T21:36:59.107Z,10.25